createdAt,value
2022-12-31T00:02:49.125Z,101190.09
2022-12-31T00:05:51.800Z,101184.88
2022-12-31T00:08:56.653Z,101187.47
2022-12-31T00:11:59.267Z,101192.63
2022-12-31T00:15:01.780Z,101201.19
2022-12-31T00:18:06.013Z,101201.12
2022-12-31T00:21:09.240Z,101204.59
2022-12-31T00:24:12.672Z,101200.28
2022-12-31T00:27:16.333Z,101205.47
2022-12-31T00:30:18.969Z,101209.72
2022-12-31T00:33:21.404Z,101217.41
2022-12-31T00:36:25.243Z,101223.41
2022-12-31T00:39:27.735Z,101216.59
2022-12-31T00:42:30.428Z,101222.59
2022-12-31T00:45:32.765Z,101223.47
2022-12-31T00:48:36.070Z,101223.37
2022-12-31T00:51:38.394Z,101218.25
2022-12-31T00:54:41.000Z,101230.25
2022-12-31T00:57:43.539Z,101238.00
2022-12-31T01:00:46.172Z,101231.97
2022-12-31T01:03:49.616Z,101233.72
2022-12-31T01:06:52.352Z,101235.44
2022-12-31T01:09:55.849Z,101235.44
2022-12-31T01:12:59.383Z,101238.84
2022-12-31T01:16:12.606Z,101231.13
2022-12-31T01:19:17.508Z,101243.13
2022-12-31T01:22:19.887Z,101233.66
2022-12-31T01:25:22.491Z,101232.72
2022-12-31T01:28:24.872Z,101232.78
2022-12-31T01:31:28.049Z,101244.78
2022-12-31T01:34:30.545Z,101243.09
2022-12-31T01:37:33.129Z,101249.16
2022-12-31T01:40:39.456Z,101238.84
2022-12-31T01:44:02.422Z,101255.97
2022-12-31T01:47:06.385Z,101244.84
2022-12-31T01:50:22.722Z,101254.31
2022-12-31T01:53:25.244Z,101253.44
2022-12-31T01:56:29.184Z,101242.34
2022-12-31T01:59:32.100Z,101246.59
2022-12-31T02:02:34.898Z,101241.47
2022-12-31T02:05:41.774Z,101248.38
2022-12-31T02:08:44.621Z,101251.81
2022-12-31T02:11:47.189Z,101252.66
2022-12-31T02:14:51.851Z,101245.81
2022-12-31T02:17:54.490Z,101246.63
2022-12-31T02:20:56.793Z,101248.38
2022-12-31T02:24:04.572Z,101256.12
2022-12-31T02:27:16.856Z,101246.78
2022-12-31T02:30:21.891Z,101236.41
2022-12-31T02:33:24.218Z,101243.22
2022-12-31T02:36:32.271Z,101254.41
2022-12-31T02:39:35.325Z,101263.00
2022-12-31T02:42:38.034Z,101260.37
2022-12-31T02:45:41.834Z,101261.22
2022-12-31T02:48:59.805Z,101251.84
2022-12-31T02:52:20.348Z,101255.28
2022-12-31T02:55:35.300Z,101264.66
2022-12-31T02:58:59.609Z,101257.81
2022-12-31T03:02:16.284Z,101242.38
2022-12-31T03:05:21.274Z,101232.94
2022-12-31T03:08:25.386Z,101223.50
2022-12-31T03:11:56.817Z,101219.22
2022-12-31T03:14:59.895Z,101232.12
2022-12-31T03:18:02.240Z,101251.84
2022-12-31T03:21:30.101Z,101222.66
2022-12-31T03:24:50.729Z,101220.13
2022-12-31T03:27:53.839Z,101241.59
2022-12-31T03:31:00.361Z,101234.75
2022-12-31T03:34:02.998Z,101235.59
2022-12-31T03:37:05.368Z,101237.34
2022-12-31T03:40:09.000Z,101227.88
2022-12-31T03:43:14.020Z,101235.59
2022-12-31T03:46:16.655Z,101221.00
2022-12-31T03:49:18.996Z,101224.41
2022-12-31T03:52:21.598Z,101220.16
2022-12-31T03:55:23.983Z,101221.84
2022-12-31T03:58:26.718Z,101229.53
2022-12-31T04:01:29.141Z,101227.06
2022-12-31T04:04:32.116Z,101227.91
2022-12-31T04:07:34.445Z,101234.75
2022-12-31T04:10:37.363Z,101234.75
2022-12-31T04:13:39.764Z,101237.34
2022-12-31T04:16:42.357Z,101237.41
2022-12-31T04:19:44.881Z,101236.50
2022-12-31T04:22:47.522Z,101231.31
2022-12-31T04:25:49.779Z,101227.94
2022-12-31T04:28:52.342Z,101237.34
2022-12-31T04:31:54.746Z,101254.47
2022-12-31T04:34:57.366Z,101254.53
2022-12-31T04:37:59.745Z,101253.63
2022-12-31T04:41:18.027Z,101252.75
2022-12-31T04:44:20.999Z,101269.09
2022-12-31T04:47:24.158Z,101260.53
2022-12-31T04:50:26.675Z,101276.78
2022-12-31T04:53:29.509Z,101275.94
2022-12-31T04:56:32.341Z,101273.31
2022-12-31T04:59:35.121Z,101282.75
2022-12-31T05:02:37.719Z,101296.53
2022-12-31T05:05:42.769Z,101302.53
2022-12-31T05:08:45.274Z,101301.72
2022-12-31T05:11:47.878Z,101293.91
2022-12-31T05:14:51.597Z,101306.81
2022-12-31T05:17:54.255Z,101316.22
2022-12-31T05:20:56.789Z,101300.88
2022-12-31T05:23:59.409Z,101304.37
2022-12-31T05:27:02.033Z,101301.75
2022-12-31T05:30:05.723Z,101307.75
2022-12-31T05:33:08.300Z,101303.44
2022-12-31T05:36:11.127Z,101319.66
2022-12-31T05:39:13.354Z,101324.84
2022-12-31T05:42:15.969Z,101333.53
2022-12-31T05:45:18.619Z,101330.03
2022-12-31T05:48:21.568Z,101336.88
2022-12-31T05:51:23.813Z,101334.34
2022-12-31T05:54:26.383Z,101330.09
2022-12-31T05:57:28.722Z,101342.06
2022-12-31T06:00:31.387Z,101338.59
2022-12-31T06:03:34.069Z,101334.25
2022-12-31T06:06:36.448Z,101333.38
2022-12-31T06:09:39.352Z,101338.56
2022-12-31T06:12:41.624Z,101343.75
2022-12-31T06:15:44.368Z,101350.56
2022-12-31T06:18:47.679Z,101337.69
2022-12-31T06:21:50.319Z,101329.09
2022-12-31T06:24:52.689Z,101332.56
2022-12-31T06:27:55.401Z,101328.28
2022-12-31T06:31:01.532Z,101339.44
2022-12-31T06:34:04.277Z,101341.19
2022-12-31T06:37:06.644Z,101342.03
2022-12-31T06:40:09.613Z,101344.69
2022-12-31T06:43:12.032Z,101336.91
2022-12-31T06:46:17.287Z,101358.38
2022-12-31T06:49:22.312Z,101360.97
2022-12-31T06:52:26.048Z,101358.38
2022-12-31T06:55:28.535Z,101361.84
2022-12-31T06:58:33.559Z,101362.72
2022-12-31T07:01:41.939Z,101361.06
2022-12-31T07:04:56.659Z,101358.44
2022-12-31T07:08:21.937Z,101362.72
2022-12-31T07:11:30.319Z,101373.03
2022-12-31T07:14:35.209Z,101379.06
2022-12-31T07:17:44.020Z,101383.38
2022-12-31T07:20:48.636Z,101382.56
2022-12-31T07:23:51.399Z,101388.59
2022-12-31T07:26:59.385Z,101392.97
2022-12-31T07:30:20.673Z,101389.53
2022-12-31T07:33:41.740Z,101386.94
2022-12-31T07:36:47.239Z,101387.78
2022-12-31T07:40:08.348Z,101378.28
2022-12-31T07:43:12.029Z,101383.47
2022-12-31T07:46:33.014Z,101384.41
2022-12-31T07:49:38.863Z,101399.87
2022-12-31T07:52:41.545Z,101402.44
2022-12-31T07:55:44.613Z,101405.84
2022-12-31T07:58:46.981Z,101400.81
2022-12-31T08:02:00.283Z,101399.03
2022-12-31T08:05:05.760Z,101401.72
2022-12-31T08:08:20.579Z,101407.78
2022-12-31T08:11:37.660Z,101404.38
2022-12-31T08:14:43.749Z,101428.44
2022-12-31T08:17:46.370Z,101431.09
2022-12-31T08:20:49.012Z,101423.37
2022-12-31T08:24:10.586Z,101428.62
2022-12-31T08:27:31.703Z,101431.25
2022-12-31T08:30:54.211Z,101445.09
2022-12-31T08:34:05.481Z,101450.28
2022-12-31T08:37:08.648Z,101459.75
2022-12-31T08:40:16.580Z,101463.22
2022-12-31T08:43:32.517Z,101461.50
2022-12-31T08:46:40.704Z,101464.09
2022-12-31T08:49:43.648Z,101470.09
2022-12-31T08:52:46.568Z,101481.31
2022-12-31T08:55:52.725Z,101484.75
2022-12-31T08:58:58.117Z,101483.03
2022-12-31T09:02:01.035Z,101483.91
2022-12-31T09:05:22.250Z,101480.41
2022-12-31T09:08:36.848Z,101482.16
2022-12-31T09:11:54.861Z,101477.00
2022-12-31T09:15:07.108Z,101479.59
2022-12-31T09:18:09.841Z,101464.06
2022-12-31T09:21:14.603Z,101463.19
2022-12-31T09:24:18.527Z,101477.00
2022-12-31T09:27:28.157Z,101468.38
2022-12-31T09:30:35.352Z,101462.34
2022-12-31T09:33:44.097Z,101464.06
2022-12-31T09:36:48.574Z,101465.81
2022-12-31T09:39:51.309Z,101441.69
2022-12-31T09:43:12.209Z,101443.37
2022-12-31T09:46:14.954Z,101435.66
2022-12-31T09:49:35.772Z,101425.31
2022-12-31T09:53:01.860Z,101426.97
2022-12-31T09:56:04.321Z,101417.53
2022-12-31T09:59:27.352Z,101417.34
2022-12-31T10:02:29.795Z,101414.62
2022-12-31T10:05:35.604Z,101410.25
2022-12-31T10:08:49.899Z,101404.28
2022-12-31T10:12:01.651Z,101407.63
2022-12-31T10:15:16.220Z,101409.44
2022-12-31T10:18:27.648Z,101409.25
2022-12-31T10:21:32.457Z,101423.03
2022-12-31T10:24:57.725Z,101420.31
2022-12-31T10:28:15.496Z,101404.16
2022-12-31T10:31:40.108Z,101410.94
2022-12-31T10:34:59.883Z,101404.72
2022-12-31T10:38:21.215Z,101406.31
2022-12-31T10:41:23.563Z,101401.94
2022-12-31T10:44:44.453Z,101414.22
2022-12-31T10:48:13.849Z,101417.75
2022-12-31T10:51:23.536Z,101417.66
2022-12-31T10:54:37.834Z,101413.59
2022-12-31T10:57:40.467Z,101412.69
2022-12-31T11:01:01.824Z,101401.53
2022-12-31T11:04:20.551Z,101395.47
2022-12-31T11:07:27.589Z,101402.59
2022-12-31T11:11:02.521Z,101406.03
2022-12-31T11:14:23.463Z,101403.41
2022-12-31T11:17:29.056Z,101405.97
2022-12-31T11:20:50.161Z,101393.84
2022-12-31T11:24:11.536Z,101382.66
2022-12-31T11:27:17.125Z,101386.19
2022-12-31T11:30:23.641Z,101378.38
2022-12-31T11:33:29.909Z,101388.75
2022-12-31T11:36:41.720Z,101405.09
2022-12-31T11:39:59.168Z,101404.13
2022-12-31T11:43:04.876Z,101387.59
2022-12-31T11:46:10.481Z,101393.72
2022-12-31T11:49:19.414Z,101385.72
2022-12-31T11:52:34.439Z,101377.06
2022-12-31T11:55:37.010Z,101369.16
2022-12-31T11:58:42.749Z,101371.72
2022-12-31T12:01:55.169Z,101380.59
2022-12-31T12:05:03.692Z,101390.88
2022-12-31T12:08:11.332Z,101399.41
2022-12-31T12:11:29.931Z,101401.12
2022-12-31T12:14:37.000Z,101400.25
2022-12-31T12:17:40.073Z,101405.38
2022-12-31T12:20:44.163Z,101403.75
2022-12-31T12:24:06.869Z,101412.13
2022-12-31T12:27:20.650Z,101413.16
2022-12-31T12:30:26.584Z,101406.09
2022-12-31T12:33:30.809Z,101401.91
2022-12-31T12:36:34.027Z,101398.63
2022-12-31T12:39:37.233Z,101391.69
2022-12-31T12:42:47.452Z,101391.81
2022-12-31T12:45:52.377Z,101389.87
2022-12-31T12:48:56.744Z,101385.44
2022-12-31T12:52:08.311Z,101400.16
2022-12-31T12:55:23.017Z,101388.91
2022-12-31T12:58:44.261Z,101397.56
2022-12-31T13:01:59.020Z,101388.78
2022-12-31T13:05:26.000Z,101390.47
2022-12-31T13:08:46.076Z,101376.59
2022-12-31T13:11:48.545Z,101377.62
2022-12-31T13:15:09.988Z,101383.00
2022-12-31T13:18:31.223Z,101374.31
2022-12-31T13:21:41.990Z,101375.19
2022-12-31T13:24:44.383Z,101391.53
2022-12-31T13:27:49.330Z,101405.44
2022-12-31T13:30:55.517Z,101402.06
2022-12-31T13:34:04.883Z,101389.94
2022-12-31T13:37:18.412Z,101396.19
2022-12-31T13:40:34.922Z,101403.97
2022-12-31T13:43:50.661Z,101386.78
2022-12-31T13:47:05.698Z,101385.09
2022-12-31T13:50:16.561Z,101388.59
2022-12-31T13:53:46.532Z,101390.28
2022-12-31T13:56:53.610Z,101402.34
2022-12-31T14:00:23.035Z,101414.53
2022-12-31T14:03:53.761Z,101421.41
2022-12-31T14:07:04.530Z,101411.12
2022-12-31T14:10:35.717Z,101405.97
2022-12-31T14:14:08.150Z,101414.53
2022-12-31T14:17:20.060Z,101434.34
2022-12-31T14:20:26.748Z,101418.81
2022-12-31T14:23:58.261Z,101415.38
2022-12-31T14:27:04.587Z,101408.41
2022-12-31T14:30:20.538Z,101412.72
2022-12-31T14:33:48.556Z,101419.63
2022-12-31T14:36:59.952Z,101423.16
2022-12-31T14:40:14.624Z,101421.38
2022-12-31T14:43:23.375Z,101417.94
2022-12-31T14:46:39.061Z,101407.56
2022-12-31T14:49:48.099Z,101407.59
2022-12-31T14:52:50.466Z,101398.97
2022-12-31T14:56:03.827Z,101410.25
2022-12-31T14:59:25.207Z,101415.41
2022-12-31T15:02:32.949Z,101407.66
2022-12-31T15:05:36.859Z,101417.25
2022-12-31T15:09:07.516Z,101422.44
2022-12-31T15:12:45.696Z,101414.66
2022-12-31T15:16:11.228Z,101401.78
2022-12-31T15:19:13.571Z,101400.94
2022-12-31T15:22:34.709Z,101427.69
2022-12-31T15:25:41.194Z,101438.88
2022-12-31T15:28:44.337Z,101432.78
2022-12-31T15:31:50.700Z,101433.69
2022-12-31T15:35:12.021Z,101425.91
2022-12-31T15:38:14.413Z,101428.50
2022-12-31T15:41:25.971Z,101417.28
2022-12-31T15:44:52.151Z,101438.00
2022-12-31T15:47:59.367Z,101469.91
2022-12-31T15:51:02.259Z,101457.81
2022-12-31T15:54:05.187Z,101461.25
2022-12-31T15:57:12.543Z,101455.25
2022-12-31T16:00:19.881Z,101442.31
2022-12-31T16:03:24.109Z,101436.25
2022-12-31T16:06:29.481Z,101431.06
2022-12-31T16:09:34.779Z,101422.44
2022-12-31T16:12:44.317Z,101433.69
2022-12-31T16:16:00.566Z,101447.50
2022-12-31T16:19:02.991Z,101443.22
2022-12-31T16:22:14.047Z,101446.69
2022-12-31T16:25:30.781Z,101435.44
2022-12-31T16:28:34.671Z,101425.97
2022-12-31T16:31:37.065Z,101418.25
2022-12-31T16:34:39.701Z,101419.16
2022-12-31T16:37:42.073Z,101417.47
2022-12-31T16:41:06.840Z,101423.53
2022-12-31T16:44:23.975Z,101429.56
2022-12-31T16:47:31.779Z,101439.91
2022-12-31T16:50:35.052Z,101444.22
2022-12-31T16:53:40.924Z,101452.84
2022-12-31T16:56:43.397Z,101454.59
2022-12-31T16:59:47.406Z,101452.88
2022-12-31T17:03:02.068Z,101442.53
2022-12-31T17:06:07.785Z,101439.09
2022-12-31T17:09:13.941Z,101433.91
2022-12-31T17:12:16.677Z,101449.44
2022-12-31T17:15:21.048Z,101452.88
2022-12-31T17:18:25.523Z,101452.88
2022-12-31T17:21:29.413Z,101449.41
2022-12-31T17:24:32.192Z,101442.53
2022-12-31T17:27:35.735Z,101452.88
2022-12-31T17:30:44.157Z,101449.41
2022-12-31T17:33:46.521Z,101462.34
2022-12-31T17:36:55.243Z,101462.34
2022-12-31T17:40:48.660Z,101475.28
2022-12-31T17:43:34.876Z,101478.75
2022-12-31T17:46:41.034Z,101475.28
2022-12-31T17:49:49.558Z,101470.09
2022-12-31T17:53:19.553Z,101464.06
2022-12-31T17:56:25.080Z,101475.25
2022-12-31T17:59:34.817Z,101479.56
2022-12-31T18:02:49.222Z,101478.69
2022-12-31T18:05:52.460Z,101482.09
2022-12-31T18:08:59.064Z,101470.00
2022-12-31T18:12:10.941Z,101469.09
2022-12-31T18:15:17.236Z,101456.19
2022-12-31T18:18:30.369Z,101446.69
2022-12-31T18:21:37.083Z,101460.47
2022-12-31T18:24:51.478Z,101473.31
2022-12-31T18:27:53.871Z,101478.47
2022-12-31T18:31:06.196Z,101480.16
2022-12-31T18:34:11.670Z,101474.94
2022-12-31T18:37:22.037Z,101478.38
2022-12-31T18:40:27.428Z,101482.69
2022-12-31T18:43:30.136Z,101485.31
2022-12-31T18:46:41.181Z,101490.47
2022-12-31T18:49:49.745Z,101501.72
2022-12-31T18:52:55.210Z,101500.88
2022-12-31T18:55:58.142Z,101512.09
2022-12-31T18:59:02.483Z,101502.66
2022-12-31T19:02:05.252Z,101509.56
2022-12-31T19:05:35.611Z,101514.72
2022-12-31T19:08:42.237Z,101509.59
2022-12-31T19:11:48.277Z,101506.16
2022-12-31T19:14:57.154Z,101511.28
2022-12-31T19:18:08.013Z,101505.25
2022-12-31T19:21:20.277Z,101506.09
2022-12-31T19:24:36.374Z,101506.94
2022-12-31T19:27:45.246Z,101505.19
2022-12-31T19:30:47.719Z,101500.03
2022-12-31T19:33:51.977Z,101494.00
2022-12-31T19:36:58.269Z,101499.94
2022-12-31T19:40:01.207Z,101508.53
2022-12-31T19:43:03.789Z,101511.09
2022-12-31T19:46:06.360Z,101510.19
2022-12-31T19:49:12.423Z,101509.25
2022-12-31T19:52:17.181Z,101504.91
2022-12-31T19:55:20.529Z,101500.50
2022-12-31T19:58:25.630Z,101487.59
2022-12-31T20:01:28.160Z,101478.94
2022-12-31T20:04:31.249Z,101466.88
2022-12-31T20:07:34.073Z,101466.78
2022-12-31T20:10:37.048Z,101472.75
2022-12-31T20:13:39.955Z,101467.66
2022-12-31T20:16:42.697Z,101478.78
2022-12-31T20:19:45.096Z,101478.72
2022-12-31T20:22:47.779Z,101477.84
2022-12-31T20:25:57.299Z,101480.34
2022-12-31T20:29:02.275Z,101472.62
2022-12-31T20:32:04.873Z,101482.03
2022-12-31T20:35:11.770Z,101485.41
2022-12-31T20:38:18.582Z,101494.81
2022-12-31T20:41:34.407Z,101485.31
2022-12-31T20:44:45.298Z,101493.00
2022-12-31T20:47:54.641Z,101503.25
2022-12-31T20:50:59.156Z,101498.09
2022-12-31T20:54:13.838Z,101492.03
2022-12-31T20:57:16.572Z,101494.53
2022-12-31T21:00:20.350Z,101489.47
2022-12-31T21:04:03.010Z,101479.12
2022-12-31T21:06:45.338Z,101484.19
2022-12-31T21:09:47.624Z,101486.69
2022-12-31T21:12:58.476Z,101486.84
2022-12-31T21:16:02.346Z,101481.63
2022-12-31T21:19:17.556Z,101487.50
2022-12-31T21:22:35.134Z,101486.62
2022-12-31T21:26:02.476Z,101493.56
2022-12-31T21:29:06.058Z,101498.84
2022-12-31T21:32:08.764Z,101514.34
2022-12-31T21:38:48.864Z,101518.66
2022-12-31T21:41:56.543Z,101522.19
2022-12-31T21:45:05.632Z,101526.53
2022-12-31T21:48:20.311Z,101525.69
2022-12-31T21:51:23.105Z,101530.00
2022-12-31T21:54:44.359Z,101529.22
2022-12-31T21:58:24.184Z,101522.34
2022-12-31T22:01:40.191Z,101533.50
2022-12-31T22:05:01.992Z,101529.25
2022-12-31T22:08:05.292Z,101525.72
2022-12-31T22:11:08.169Z,101528.31
2022-12-31T22:14:10.800Z,101530.84
2022-12-31T22:17:14.769Z,101541.06
2022-12-31T22:20:27.479Z,101532.31
2022-12-31T22:23:31.270Z,101527.94
2022-12-31T22:26:33.665Z,101525.31
2022-12-31T22:29:36.412Z,101534.72
2022-12-31T22:32:39.022Z,101521.87
2022-12-31T22:35:41.653Z,101521.84
2022-12-31T22:38:44.428Z,101513.16
2022-12-31T22:41:47.061Z,101517.41
2022-12-31T22:44:49.400Z,101521.63
2022-12-31T22:47:54.915Z,101519.00
2022-12-31T22:50:57.463Z,101501.03
2022-12-31T22:54:00.174Z,101496.72
2022-12-31T22:57:05.030Z,101504.34
2022-12-31T23:00:15.980Z,101505.31
2022-12-31T23:03:28.354Z,101500.94
2022-12-31T23:06:55.535Z,101501.69
2022-12-31T23:10:18.564Z,101503.25
2022-12-31T23:13:49.789Z,101495.44
2022-12-31T23:17:29.854Z,101491.91
2022-12-31T23:20:55.777Z,101483.38
2022-12-31T23:24:07.778Z,101486.78
2022-12-31T23:27:28.764Z,101497.81
2022-12-31T23:30:33.280Z,101485.78
2022-12-31T23:33:42.254Z,101492.56
2022-12-31T23:36:47.008Z,101501.87
2022-12-31T23:39:55.928Z,101502.78
2022-12-31T23:43:03.728Z,101510.47
2022-12-31T23:46:13.227Z,101503.47
2022-12-31T23:49:17.055Z,101506.91
2022-12-31T23:52:19.730Z,101515.50
2022-12-31T23:55:22.065Z,101513.72
2022-12-31T23:58:24.708Z,101512.88
